Time;durP1;ratioP1;P1;durP2;ratioP2;P2;SDS_P1;SDS_P2;PMS_P1;PMS_P2;Temp;Humidity;BMP_temperature;BMP_pressure;BME280_temperature;BME280_humidity;BME280_pressure;Samples;Min_cycle;Max_cycle;Signal;HPM_P1;HPM_P2
2021/12/05 00:17:34;;;;;;;337.52;109.57;;;;;;;8.04;88.67;99151.34;343691;28;1093;-70
2021/12/05 00:18:40;;;;;;;339.06;109.92;;;;;;;8.02;89.02;99159.22;345950;28;1640;-70
2021/12/05 00:20:30;;;;;;;343.15;111.32;;;;;;;8.07;89.51;99167.72;344186;28;1997;-70
2021/12/05 00:22:05;;;;;;;339.88;113.40;;;;;;;8.16;88.74;99169.13;342825;28;854;-70
2021/12/05 00:22:30;;;;;;;338.77;111.45;;;;;;;8.15;88.95;99163.06;344685;28;2004;-70
2021/12/05 00:22:47;;;;;;;337.75;109.07;;;;;;;8.19;88.92;99167.25;343980;28;1996;-70
2021/12/05 00:22:58;;;;;;;338.42;109.90;;;;;;;8.20;88.77;99166.34;346401;28;2288;-70
2021/12/05 00:23:32;;;;;;;340.52;109.93;;;;;;;8.22;89.09;99169.75;343815;28;1908;-70
2021/12/05 00:23:49;;;;;;;339.05;110.68;;;;;;;8.22;88.84;99159.31;343905;28;1984;-70
2021/12/05 00:24:03;;;;;;;341.00;110.70;;;;;;;8.22;88.71;99161.06;344275;28;1763;-70
2021/12/05 00:24:18;;;;;;;340.08;109.70;;;;;;;8.22;89.04;99158.47;345257;28;2309;-70
2021/12/05 00:24:31;;;;;;;338.30;109.25;;;;;;;8.25;88.60;99163.53;346421;28;1416;-70
2021/12/05 00:24:45;;;;;;;338.60;109.80;;;;;;;8.24;88.95;99162.69;346256;28;1319;-70
2021/12/05 00:24:58;;;;;;;337.88;109.75;;;;;;;8.26;88.71;99160.03;345097;28;1557;-70
2021/12/05 00:25:11;;;;;;;338.70;110.60;;;;;;;8.26;88.93;99160.88;343869;28;928;-70
2021/12/05 00:25:27;;;;;;;336.17;109.07;;;;;;;8.28;88.95;99158.19;342423;28;1007;-70
2021/12/05 00:25:37;;;;;;;334.83;108.25;;;;;;;8.29;88.80;99159.91;343864;28;909;-71
2021/12/05 00:25:52;;;;;;;336.70;110.03;;;;;;;8.31;88.47;99158.94;344932;28;1936;-71
2021/12/05 00:26:04;;;;;;;338.55;111.47;;;;;;;8.30;88.68;99154.63;344938;28;2127;-71
2021/12/05 00:26:18;;;;;;;337.58;111.15;;;;;;;8.29;88.28;99165.97;346274;28;1983;-71
2021/12/05 00:26:29;;;;;;;335.73;108.80;;;;;;;8.26;88.73;99160.88;343585;28;2144;-71
2021/12/05 00:26:40;;;;;;;336.33;109.68;;;;;;;8.25;88.36;99159.16;345128;28;2523;-71
2021/12/05 00:26:56;;;;;;;337.75;110.65;;;;;;;8.22;88.48;99159.31;345004;28;1046;-71
2021/12/05 00:27:15;;;;;;;337.50;110.18;;;;;;;8.19;88.59;99163.81;346490;28;1007;-71
2021/12/05 00:27:31;;;;;;;336.95;109.50;;;;;;;8.07;88.74;99154.69;346420;28;1313;-71
2021/12/05 00:27:49;;;;;;;337.05;109.72;;;;;;;7.99;88.99;99157.56;345538;28;1082;-71
2021/12/05 00:29:30;;;;;;;336.55;107.75;;;;;;;7.97;89.66;99158.53;345651;28;1140;-71
2021/12/05 00:30:12;;;;;;;337.38;111.18;;;;;;;7.98;88.93;99160.25;343606;28;1811;-71
2021/12/05 00:31:45;;;;;;;336.40;107.25;;;;;;;8.01;89.18;99154.91;344974;28;1654;-71
2021/12/05 00:33:31;;;;;;;333.13;106.63;;;;;;;8.15;89.15;99167.44;346218;28;1675;-71
2021/12/05 00:34:07;;;;;;;337.15;108.43;;;;;;;8.04;89.04;99161.78;345188;28;1766;-71
2021/12/05 00:36:11;;;;;;;332.85;107.35;;;;;;;7.90;88.87;99168.34;343632;28;972;-71
2021/12/05 00:42:30;;;;;;;332.10;106.30;;;;;;;7.94;89.04;99161.25;347441;28;1189;-69
2021/12/05 00:46:29;;;;;;;332.30;104.53;;;;;;;7.81;89.46;99153.03;342340;28;985;-70
2021/12/05 00:47:33;;;;;;;334.58;108.15;;;;;;;7.94;88.82;99158.66;343730;28;1685;-70
2021/12/05 00:53:41;;;;;;;336.00;107.95;;;;;;;7.95;89.12;99152.53;342381;28;872;-70
2021/12/05 00:56:18;;;;;;;336.73;109.63;;;;;;;7.98;88.66;99142.00;344471;28;2149;-70
2021/12/05 00:58:40;;;;;;;341.73;112.63;;;;;;;7.99;89.07;99143.69;345317;28;2258;-70
2021/12/05 01:03:28;;;;;;;337.98;110.03;;;;;;;7.86;89.08;99151.13;348176;28;816;-70
2021/12/05 01:04:28;;;;;;;333.55;106.65;;;;;;;7.92;89.28;99147.44;346796;28;1932;-70
2021/12/05 01:07:43;;;;;;;334.63;108.05;;;;;;;7.86;89.54;99150.28;344060;28;845;-70
2021/12/05 01:08:13;;;;;;;333.10;106.78;;;;;;;7.87;89.21;99149.38;346740;28;1673;-70
2021/12/05 01:09:32;;;;;;;331.45;105.13;;;;;;;7.93;88.76;99146.53;345629;28;2123;-70
2021/12/05 01:10:08;;;;;;;332.80;102.15;;;;;;;7.92;88.88;99150.03;345432;28;950;-70
2021/12/05 01:11:43;;;;;;;331.50;102.82;;;;;;;7.85;88.53;99144.22;344000;28;969;-70
2021/12/05 01:12:12;;;;;;;330.02;104.72;;;;;;;7.81;88.98;99149.59;343488;28;1500;-70
2021/12/05 01:15:06;;;;;;;329.67;103.30;;;;;;;7.91;88.46;99148.34;342451;28;1761;-70
2021/12/05 01:15:21;;;;;;;331.70;104.13;;;;;;;7.94;88.32;99150.84;343712;28;1487;-70
2021/12/05 01:15:32;;;;;;;332.10;103.28;;;;;;;7.96;88.64;99151.63;344034;28;1762;-70
2021/12/05 01:15:42;;;;;;;332.13;104.05;;;;;;;7.98;88.39;99150.66;345308;28;890;-70
2021/12/05 01:15:53;;;;;;;332.83;104.67;;;;;;;7.99;88.78;99147.16;346523;28;2135;-70
2021/12/05 01:16:07;;;;;;;331.38;104.07;;;;;;;7.99;88.00;99152.38;344545;28;2008;-70
2021/12/05 01:16:18;;;;;;;330.42;104.02;;;;;;;8.02;88.37;99146.19;343748;28;2087;-70
2021/12/05 01:16:31;;;;;;;331.65;106.25;;;;;;;8.02;88.41;99154.00;344616;28;1683;-70
2021/12/05 01:16:43;;;;;;;332.15;107.45;;;;;;;8.04;88.44;99149.59;343877;28;1313;-70
2021/12/05 01:16:53;;;;;;;332.25;107.10;;;;;;;8.03;88.21;99153.09;344856;28;2067;-70
2021/12/05 01:17:04;;;;;;;332.17;106.47;;;;;;;8.05;88.32;99150.44;345275;28;2054;-70
2021/12/05 01:17:17;;;;;;;331.17;105.57;;;;;;;8.06;87.92;99155.59;345313;28;1239;-70
2021/12/05 01:17:38;;;;;;;329.92;103.72;;;;;;;8.00;87.94;99148.00;346828;28;891;-70
2021/12/05 01:18:06;;;;;;;331.33;101.70;;;;;;;7.98;88.46;99149.81;345312;28;2021;-70
2021/12/05 01:18:19;;;;;;;331.67;102.18;;;;;;;7.97;88.35;99148.13;344097;28;996;-70
2021/12/05 01:18:29;;;;;;;332.16;102.64;;;;;;;7.99;88.56;99152.38;342690;28;1174;-70
2021/12/05 01:18:40;;;;;;;333.10;102.63;;;;;;;8.00;88.03;99148.00;343543;28;1642;-70
2021/12/05 01:18:50;;;;;;;330.33;101.60;;;;;;;8.02;88.29;99154.00;345077;28;2240;-70
2021/12/05 01:19:00;;;;;;;329.77;101.40;;;;;;;8.01;88.04;99154.91;348201;28;924;-70
2021/12/05 01:19:12;;;;;;;329.87;102.87;;;;;;;8.01;88.06;99149.72;344668;28;2350;-70
2021/12/05 01:19:22;;;;;;;329.60;102.20;;;;;;;7.98;87.99;99150.66;345360;28;1952;-70
2021/12/05 01:19:34;;;;;;;329.52;102.35;;;;;;;7.98;88.18;99152.41;345754;28;2177;-70
2021/12/05 01:19:44;;;;;;;330.17;103.38;;;;;;;7.98;87.82;99148.06;345740;28;1304;-70
2021/12/05 01:19:55;;;;;;;330.25;103.93;;;;;;;7.96;88.01;99149.03;343329;28;1449;-70
2021/12/05 01:20:10;;;;;;;331.03;104.57;;;;;;;7.93;87.87;99141.31;344295;28;964;-70
2021/12/05 01:20:21;;;;;;;332.05;107.10;;;;;;;7.91;88.29;99145.75;343987;28;2140;-70
2021/12/05 01:20:36;;;;;;;331.40;106.10;;;;;;;7.90;88.01;99149.25;345314;28;1527;-70
2021/12/05 01:20:54;;;;;;;329.90;104.70;;;;;;;7.93;88.43;99146.53;346718;28;837;-70
2021/12/05 01:21:09;;;;;;;330.85;105.63;;;;;;;7.93;88.28;99136.97;344398;28;2108;-70
2021/12/05 01:21:22;;;;;;;333.38;106.18;;;;;;;7.91;88.35;99146.59;346146;28;1748;-70
2021/12/05 01:21:33;;;;;;;333.13;107.32;;;;;;;7.92;88.54;99150.03;343866;28;1898;-70
2021/12/05 01:21:44;;;;;;;331.02;105.62;;;;;;;7.90;88.18;99144.88;344120;28;1105;-70
2021/12/05 01:21:56;;;;;;;332.40;105.40;;;;;;;7.89;88.22;99150.16;345305;28;2137;-70
2021/12/05 01:22:10;;;;;;;332.40;104.63;;;;;;;7.90;88.41;99149.25;345190;28;2073;-70
2021/12/05 01:22:22;;;;;;;331.52;105.72;;;;;;;7.91;88.13;99143.13;346288;28;2048;-70
2021/12/05 01:22:36;;;;;;;331.02;105.97;;;;;;;7.92;88.45;99150.03;344003;28;1294;-70
2021/12/05 01:22:54;;;;;;;329.42;103.95;;;;;;;7.88;88.39;99145.84;342606;28;972;-70
2021/12/05 01:23:16;;;;;;;329.63;102.78;;;;;;;7.81;88.34;99146.97;343855;28;2323;-70
2021/12/05 01:24:05;;;;;;;329.18;101.10;;;;;;;7.77;87.96;99138.47;342742;28;905;-70
2021/12/05 01:25:11;;;;;;;326.37;98.90;;;;;;;7.80;88.28;99135.72;343874;28;2004;-70
2021/12/05 01:25:33;;;;;;;327.42;100.95;;;;;;;7.76;87.73;99138.53;345732;28;1947;-70
2021/12/05 01:26:03;;;;;;;330.17;102.87;;;;;;;7.65;88.10;99139.75;346707;28;2029;-70
2021/12/05 01:26:19;;;;;;;330.55;102.10;;;;;;;7.65;88.45;99142.38;345238;28;1900;-70
2021/12/05 01:26:49;;;;;;;328.30;98.90;;;;;;;7.68;88.28;99136.19;342523;28;1935;-70
2021/12/05 01:27:41;;;;;;;323.83;97.45;;;;;;;7.68;88.65;99138.81;349316;28;2091;-70
2021/12/05 01:31:58;;;;;;;328.35;100.50;;;;;;;7.63;88.39;99146.78;343619;28;2112;-70
2021/12/05 01:33:44;;;;;;;327.33;99.63;;;;;;;7.65;88.26;99142.38;339712;29;2054;-69
2021/12/05 01:33:58;;;;;;;326.03;98.63;;;;;;;7.74;88.61;99140.34;339856;29;1716;-70
2021/12/05 01:35:02;;;;;;;324.67;96.90;;;;;;;7.82;88.18;99148.69;337445;29;1608;-70
2021/12/05 01:35:49;;;;;;;327.75;98.55;;;;;;;7.82;88.29;99143.47;338389;29;1974;-70
2021/12/05 01:36:12;;;;;;;326.65;100.82;;;;;;;7.88;87.56;99138.03;341230;29;2172;-70
2021/12/05 01:36:42;;;;;;;328.40;102.00;;;;;;;7.87;87.09;99142.41;339080;29;2219;-70
2021/12/05 01:38:44;;;;;;;325.42;97.88;;;;;;;7.73;87.58;99136.88;343932;28;1876;-70
2021/12/05 01:45:59;;;;;;;326.67;101.45;;;;;;;7.65;88.43;99141.53;345025;28;815;-70
2021/12/05 01:56:04;;;;;;;329.40;100.95;;;;;;;7.49;88.51;99128.19;347463;28;2068;-69
2021/12/05 01:57:47;;;;;;;335.50;105.23;;;;;;;7.57;88.87;99133.97;346736;28;927;-70
2021/12/05 01:58:45;;;;;;;348.45;112.82;;;;;;;7.40;89.39;99132.88;344185;28;1779;-70
2021/12/05 01:59:26;;;;;;;347.73;110.88;;;;;;;7.39;89.25;99126.81;343852;28;2157;-70
2021/12/05 02:01:41;;;;;;;342.33;109.32;;;;;;;7.53;89.43;99124.59;341102;29;1015;-70
2021/12/05 02:08:56;;;;;;;356.40;116.82;;;;;;;7.55;89.32;99120.16;343897;28;1130;-71
2021/12/05 02:10:40;;;;;;;353.63;117.20;;;;;;;7.38;89.72;99112.09;345307;28;921;-71
2021/12/05 02:11:20;;;;;;;358.33;116.75;;;;;;;7.48;89.90;99113.47;345691;28;1952;-71
2021/12/05 02:12:35;;;;;;;356.85;118.82;;;;;;;7.53;89.78;99111.56;347855;28;1703;-70
2021/12/05 02:15:19;;;;;;;357.25;119.03;;;;;;;7.60;89.68;99112.19;345966;28;2059;-69
2021/12/05 02:16:45;;;;;;;354.10;114.53;;;;;;;7.24;90.92;99114.38;347020;28;1686;-70
2021/12/05 02:29:36;;;;;;;342.30;105.38;;;;;;;7.18;91.87;99114.59;345277;28;1879;-69
2021/12/05 02:31:41;;;;;;;343.98;105.28;;;;;;;7.17;91.81;99116.34;342078;28;1832;-70
2021/12/05 02:34:46;;;;;;;343.45;107.22;;;;;;;7.45;91.08;99107.53;345177;28;1044;-70
2021/12/05 02:36:09;;;;;;;346.50;107.50;;;;;;;7.32;90.76;99109.75;345308;28;970;-70
2021/12/05 02:38:51;;;;;;;343.73;108.32;;;;;;;7.15;92.13;99099.09;345332;28;877;-70
2021/12/05 02:41:22;;;;;;;344.30;105.57;;;;;;;7.30;91.58;99094.19;342263;28;1218;-70
2021/12/05 02:41:33;;;;;;;346.63;105.63;;;;;;;7.26;91.63;99103.00;344266;28;2030;-70
2021/12/05 02:41:38;;;;;;;344.77;104.88;;;;;;;7.31;91.63;99095.88;342398;28;2131;-70
2021/12/05 02:41:51;;;;;;;342.80;106.55;;;;;;;7.34;91.34;99098.38;343597;28;2092;-70
2021/12/05 02:42:12;;;;;;;342.95;107.97;;;;;;;7.38;91.07;99095.63;343138;28;1763;-70
2021/12/05 02:42:32;;;;;;;344.13;107.72;;;;;;;7.40;91.43;99094.69;343694;28;923;-70
2021/12/05 02:42:52;;;;;;;345.08;107.05;;;;;;;7.39;91.13;99092.97;344904;28;2178;-70
2021/12/05 02:43:13;;;;;;;343.35;108.30;;;;;;;7.41;91.11;99095.53;342494;28;976;-71
2021/12/05 02:43:31;;;;;;;342.40;108.07;;;;;;;7.40;91.14;99094.69;345138;28;1885;-70
2021/12/05 02:43:45;;;;;;;343.25;106.25;;;;;;;7.37;91.04;99093.94;343773;28;1971;-70
2021/12/05 02:44:01;;;;;;;342.17;105.65;;;;;;;7.36;90.80;99100.94;343749;28;2265;-70
2021/12/05 02:44:31;;;;;;;341.30;104.93;;;;;;;7.38;90.89;99093.88;343685;28;1924;-70
2021/12/05 02:44:42;;;;;;;339.70;104.50;;;;;;;7.41;90.97;99095.53;342421;28;1818;-70
2021/12/05 02:44:52;;;;;;;339.83;103.97;;;;;;;7.43;91.24;99091.97;343654;28;944;-70
2021/12/05 02:45:07;;;;;;;338.27;104.43;;;;;;;7.45;90.57;99097.13;343073;28;1862;-70
2021/12/05 02:45:17;;;;;;;338.55;103.63;;;;;;;7.44;90.99;99091.06;343523;28;2053;-70
2021/12/05 02:45:28;;;;;;;340.40;103.70;;;;;;;7.44;90.72;99092.81;343483;28;2156;-70
2021/12/05 02:45:40;;;;;;;341.13;104.20;;;;;;;7.42;90.67;99092.88;342416;28;1189;-70
2021/12/05 02:45:53;;;;;;;341.48;106.75;;;;;;;7.42;90.74;99102.44;343511;28;1822;-70
2021/12/05 02:46:04;;;;;;;343.83;109.75;;;;;;;7.43;90.85;99094.56;346053;28;1739;-70
2021/12/05 02:46:18;;;;;;;342.77;109.88;;;;;;;7.39;91.24;99098.19;345443;28;1244;-70
2021/12/05 02:46:28;;;;;;;344.73;109.55;;;;;;;7.39;91.17;99092.97;345179;28;1080;-70
2021/12/05 02:46:42;;;;;;;343.20;107.23;;;;;;;7.36;90.64;99095.72;343867;28;1968;-70
2021/12/05 02:47:07;;;;;;;341.63;105.20;;;;;;;7.38;91.13;99091.28;345181;28;941;-70
2021/12/05 02:47:20;;;;;;;343.58;104.55;;;;;;;7.41;91.17;99090.31;344606;28;1479;-70
2021/12/05 02:47:32;;;;;;;346.10;106.57;;;;;;;7.43;90.99;99088.53;345105;28;1661;-70
2021/12/05 02:47:49;;;;;;;343.95;107.15;;;;;;;7.45;90.99;99092.75;345098;28;1951;-70
2021/12/05 02:47:59;;;;;;;343.35;106.38;;;;;;;7.48;91.05;99095.25;345194;28;2054;-70
2021/12/05 02:48:09;;;;;;;345.00;106.25;;;;;;;7.49;90.79;99089.16;346640;28;1482;-70
2021/12/05 02:48:22;;;;;;;344.87;107.77;;;;;;;7.51;90.42;99091.69;345366;28;1778;-70
2021/12/05 02:48:35;;;;;;;342.08;106.63;;;;;;;7.50;90.54;99090.84;345275;28;1469;-70
2021/12/05 02:48:46;;;;;;;342.20;105.03;;;;;;;7.53;90.73;99095.09;345014;28;1742;-70
2021/12/05 02:49:01;;;;;;;343.60;104.90;;;;;;;7.54;90.85;99097.63;345291;28;880;-70
2021/12/05 02:49:14;;;;;;;342.50;105.72;;;;;;;7.54;90.64;99092.44;343346;28;2049;-70
2021/12/05 02:49:26;;;;;;;342.30;105.97;;;;;;;7.53;90.59;99095.94;342476;28;1326;-70
2021/12/05 02:49:37;;;;;;;346.17;107.57;;;;;;;7.50;90.52;99095.19;343748;28;1635;-70
2021/12/05 02:49:51;;;;;;;345.73;107.78;;;;;;;7.38;90.40;99093.03;342908;28;1996;-70
2021/12/05 02:50:05;;;;;;;339.85;104.97;;;;;;;7.34;90.91;99094.94;342837;28;2120;-70
2021/12/05 02:50:15;;;;;;;340.95;104.68;;;;;;;7.30;90.72;99098.56;343718;28;2093;-70
2021/12/05 02:50:29;;;;;;;343.60;104.32;;;;;;;7.26;91.01;99097.81;343755;28;2173;-70
2021/12/05 02:50:39;;;;;;;343.92;104.60;;;;;;;7.27;91.37;99090.84;345244;28;2353;-70
2021/12/05 02:50:50;;;;;;;341.58;103.68;;;;;;;7.26;91.39;99092.59;346406;28;1801;-70
2021/12/05 02:51:01;;;;;;;341.08;103.70;;;;;;;7.28;91.04;99092.56;343602;28;1820;-70
2021/12/05 02:51:19;;;;;;;339.38;103.97;;;;;;;7.29;91.64;99092.50;343788;28;1696;-70
2021/12/05 02:51:29;;;;;;;337.55;104.63;;;;;;;7.27;91.29;99083.88;343459;28;2164;-70
2021/12/05 02:51:40;;;;;;;341.88;105.50;;;;;;;7.26;91.48;99095.22;344009;28;1771;-70
2021/12/05 02:51:58;;;;;;;342.65;107.10;;;;;;;7.27;91.51;99090.84;346288;28;2290;-70
2021/12/05 02:52:10;;;;;;;341.20;105.95;;;;;;;7.19;91.46;99090.28;342492;28;1331;-70
2021/12/05 02:52:27;;;;;;;344.38;105.15;;;;;;;7.22;91.88;99090.16;347542;28;1920;-70
2021/12/05 02:52:40;;;;;;;345.40;105.40;;;;;;;7.18;91.67;99094.63;345305;28;959;-70
2021/12/05 02:52:53;;;;;;;347.38;107.50;;;;;;;7.16;92.05;99095.59;344784;28;2125;-70
2021/12/05 02:53:26;;;;;;;350.52;107.50;;;;;;;7.17;92.17;99089.47;345004;28;2052;-70
2021/12/05 02:53:48;;;;;;;344.50;106.43;;;;;;;7.16;91.99;99087.78;344710;28;1658;-70
2021/12/05 02:54:34;;;;;;;345.50;107.05;;;;;;;7.16;92.20;99088.63;344647;28;2248;-70
2021/12/05 02:54:39;;;;;;;342.15;105.60;;;;;;;7.14;92.46;99090.44;342985;28;1878;-70
2021/12/05 02:54:53;;;;;;;342.23;107.40;;;;;;;7.14;92.10;99082.63;347098;28;2032;-70
2021/12/05 02:55:22;;;;;;;342.67;107.50;;;;;;;7.12;92.25;99091.38;344062;28;1874;-70
2021/12/05 02:55:39;;;;;;;344.80;108.32;;;;;;;7.15;92.21;99088.69;345888;28;1888;-70
2021/12/05 02:55:50;;;;;;;342.10;105.70;;;;;;;7.17;92.33;99084.28;346462;28;2137;-70
2021/12/05 02:56:00;;;;;;;342.15;104.35;;;;;;;7.17;92.23;99086.88;346222;28;2063;-70
2021/12/05 02:56:11;;;;;;;343.92;105.93;;;;;;;7.16;92.33;99085.16;346759;28;1244;-70
2021/12/05 02:56:23;;;;;;;345.30;106.47;;;;;;;7.15;92.55;99079.13;345827;28;2077;-70
2021/12/05 02:56:38;;;;;;;341.95;104.55;;;;;;;7.21;92.11;99088.47;343353;28;2065;-70
2021/12/05 02:56:51;;;;;;;341.45;103.88;;;;;;;7.23;92.35;99091.84;341807;28;1703;-70
2021/12/05 02:57:01;;;;;;;344.95;106.32;;;;;;;7.24;91.90;99083.16;343879;28;1678;-70
2021/12/05 02:57:12;;;;;;;344.53;108.97;;;;;;;7.26;92.28;99091.75;345222;28;1400;-70
2021/12/05 02:57:55;;;;;;;340.02;106.05;;;;;;;7.32;91.62;99087.19;346136;28;1563;-70
2021/12/05 02:58:16;;;;;;;341.50;106.30;;;;;;;7.29;91.98;99091.66;342554;28;1735;-70
2021/12/05 02:58:36;;;;;;;345.33;104.90;;;;;;;7.27;91.80;99083.88;343803;28;897;-70
2021/12/05 02:58:57;;;;;;;343.23;106.13;;;;;;;7.27;91.54;99083.88;345474;28;1453;-70
2021/12/05 02:59:20;;;;;;;343.10;107.30;;;;;;;7.25;91.81;99088.31;345183;28;1148;-70
2021/12/05 02:59:50;;;;;;;338.73;103.63;;;;;;;7.33;91.31;99088.03;343528;28;1242;-70
2021/12/05 03:00:08;;;;;;;339.33;103.97;;;;;;;7.35;91.81;99081.00;342223;28;1610;-70
2021/12/05 03:00:39;;;;;;;340.70;104.15;;;;;;;7.37;91.33;99084.38;343790;28;1761;-70
2021/12/05 03:01:31;;;;;;;340.90;104.45;;;;;;;7.35;91.50;99081.00;345696;28;2151;-70
2021/12/05 03:01:43;;;;;;;338.85;103.03;;;;;;;7.37;91.40;99079.19;345338;28;1480;-70
2021/12/05 03:01:59;;;;;;;341.52;103.93;;;;;;;7.34;91.37;99082.78;346259;28;920;-70
2021/12/05 03:02:13;;;;;;;342.27;105.13;;;;;;;7.35;91.27;99081.00;345248;28;1013;-70
2021/12/05 03:02:37;;;;;;;342.38;105.75;;;;;;;7.32;91.51;99086.34;343885;28;1168;-70
2021/12/05 03:02:51;;;;;;;342.23;106.00;;;;;;;7.29;91.43;99083.84;344875;28;1470;-70
2021/12/05 03:03:02;;;;;;;341.02;104.07;;;;;;;7.28;91.78;99084.75;344326;28;2088;-70
2021/12/05 03:03:22;;;;;;;340.98;103.45;;;;;;;7.30;91.67;99082.94;349271;28;1590;-70
2021/12/05 03:03:32;;;;;;;342.55;105.82;;;;;;;7.33;91.36;99082.81;345061;28;2066;-70
2021/12/05 03:03:43;;;;;;;343.02;105.68;;;;;;;7.36;91.67;99080.13;343752;28;2095;-70
2021/12/05 03:03:54;;;;;;;343.50;104.13;;;;;;;7.38;91.29;99080.03;343685;28;1844;-70
2021/12/05 03:04:05;;;;;;;343.30;105.63;;;;;;;7.40;90.80;99081.66;342095;28;2058;-70
2021/12/05 03:04:16;;;;;;;346.23;108.88;;;;;;;7.41;91.40;99080.75;342753;28;2143;-70
2021/12/05 03:04:31;;;;;;;344.13;109.00;;;;;;;7.43;91.08;99081.56;342337;28;923;-70
2021/12/05 03:04:46;;;;;;;340.23;107.68;;;;;;;7.39;91.05;99071.31;342462;28;1430;-70
2021/12/05 03:05:00;;;;;;;341.05;107.20;;;;;;;7.39;90.99;99082.56;344370;28;1505;-71
2021/12/05 03:05:14;;;;;;;340.50;106.55;;;;;;;7.39;91.38;99082.56;345312;28;956;-70
2021/12/05 03:05:25;;;;;;;339.13;105.30;;;;;;;7.43;91.36;99078.97;343893;28;1101;-70
2021/12/05 03:05:42;;;;;;;339.83;105.97;;;;;;;7.44;91.28;99080.66;348886;28;2071;-70
2021/12/05 03:05:59;;;;;;;342.13;107.95;;;;;;;7.46;90.96;99083.19;343898;28;875;-70
2021/12/05 03:06:21;;;;;;;342.48;108.28;;;;;;;7.47;91.28;99082.28;343899;28;799;-71
2021/12/05 03:06:33;;;;;;;339.13;104.13;;;;;;;7.46;90.84;99084.06;343168;28;2142;-70
2021/12/05 03:06:51;;;;;;;340.20;104.25;;;;;;;7.40;91.21;99079.06;343862;28;1963;-70
2021/12/05 03:07:06;;;;;;;344.63;105.15;;;;;;;7.40;91.36;99089.47;345568;28;2266;-70
2021/12/05 03:07:19;;;;;;;345.73;105.28;;;;;;;7.42;91.50;99087.66;344589;28;1964;-70
2021/12/05 03:07:37;;;;;;;346.23;107.20;;;;;;;7.45;91.21;99084.94;343492;28;2192;-70
2021/12/05 03:07:49;;;;;;;346.67;109.97;;;;;;;7.48;90.73;99092.66;344449;28;2116;-70
2021/12/05 03:08:01;;;;;;;346.75;108.35;;;;;;;7.51;90.95;99086.50;345760;28;1877;-70
2021/12/05 03:08:12;;;;;;;343.98;107.15;;;;;;;7.53;91.10;99088.13;343884;28;926;-70
2021/12/05 03:08:22;;;;;;;343.73;108.33;;;;;;;7.53;91.03;99093.34;345936;28;1451;-70
2021/12/05 03:08:32;;;;;;;344.90;106.85;;;;;;;7.55;90.85;99093.28;345027;28;2329;-70
2021/12/05 03:08:44;;;;;;;345.27;107.50;;;;;;;7.55;90.71;99098.50;345111;28;2097;-70
2021/12/05 03:09:06;;;;;;;342.20;106.18;;;;;;;7.54;90.52;99087.22;344630;28;1567;-70
2021/12/05 03:09:17;;;;;;;341.90;108.72;;;;;;;7.56;90.54;99093.22;344835;28;1890;-70
2021/12/05 03:09:27;;;;;;;342.73;107.40;;;;;;;7.58;90.86;99098.38;345184;28;977;-70
2021/12/05 03:09:39;;;;;;;342.17;106.37;;;;;;;7.57;90.56;99092.31;345097;28;1057;-70
2021/12/05 03:09:50;;;;;;;341.27;105.55;;;;;;;7.55;90.37;99099.34;346521;28;1675;-70
2021/12/05 03:10:00;;;;;;;341.53;105.10;;;;;;;7.53;90.47;99095.94;345036;28;1773;-70
2021/12/05 03:10:11;;;;;;;342.13;106.00;;;;;;;7.49;90.81;99093.50;342440;28;1224;-70
2021/12/05 03:10:21;;;;;;;341.24;107.46;;;;;;;7.44;90.83;99098.03;344973;28;1783;-70
2021/12/05 03:10:32;;;;;;;341.37;107.13;;;;;;;7.43;91.07;99097.19;345112;28;2250;-70
2021/12/05 03:10:43;;;;;;;342.07;106.73;;;;;;;7.42;91.20;99092.88;345073;28;2199;-70
2021/12/05 03:10:54;;;;;;;343.17;106.67;;;;;;;7.45;90.95;99102.31;343735;28;1504;-70
2021/12/05 03:11:04;;;;;;;344.22;107.28;;;;;;;7.48;90.89;99094.41;344594;28;1030;-70
2021/12/05 03:11:15;;;;;;;343.70;107.57;;;;;;;7.50;90.69;99090.00;344446;28;2029;-70
2021/12/05 03:11:26;;;;;;;345.02;106.25;;;;;;;7.50;90.57;99095.19;342765;28;1094;-70
2021/12/05 03:11:37;;;;;;;344.63;106.55;;;;;;;7.50;90.69;99096.06;344976;28;2052;-70
2021/12/05 03:11:47;;;;;;;344.98;105.75;;;;;;;7.50;90.97;99093.44;344328;28;1723;-70
2021/12/05 03:11:58;;;;;;;344.53;106.40;;;;;;;7.50;90.73;99093.44;346472;28;1922;-70
2021/12/05 03:12:10;;;;;;;344.48;106.55;;;;;;;7.50;90.51;99098.66;343909;28;1313;-70
2021/12/05 03:12:21;;;;;;;344.05;107.90;;;;;;;7.45;90.55;99103.19;346039;28;1642;-70
2021/12/05 03:12:34;;;;;;;341.53;106.63;;;;;;;7.46;90.88;99093.63;346624;28;1760;-70
2021/12/05 03:12:46;;;;;;;338.80;104.57;;;;;;;7.45;90.83;99097.97;346145;28;2282;-70
2021/12/05 03:12:56;;;;;;;340.23;106.97;;;;;;;7.43;90.96;99094.56;343768;28;2395;-71
2021/12/05 03:13:07;;;;;;;339.80;107.70;;;;;;;7.46;91.36;99091.00;345092;28;2424;-71
2021/12/05 03:13:17;;;;;;;340.13;106.60;;;;;;;7.45;90.98;99097.13;343676;28;2142;-70
2021/12/05 03:13:28;;;;;;;338.83;105.00;;;;;;;7.44;91.27;99101.47;342477;28;1859;-71
2021/12/05 03:13:40;;;;;;;342.07;106.80;;;;;;;7.43;90.66;99105.00;345242;28;1002;-71
2021/12/05 03:13:50;;;;;;;340.67;106.88;;;;;;;7.41;90.79;99098.13;344979;28;1844;-70
2021/12/05 03:14:01;;;;;;;340.55;107.07;;;;;;;7.40;90.80;99094.69;343701;28;2120;-70
2021/12/05 03:14:11;;;;;;;341.23;107.90;;;;;;;7.36;90.99;99098.34;343622;28;2139;-70
2021/12/05 03:14:22;;;;;;;341.55;107.85;;;;;;;7.33;91.15;99098.44;343507;28;2244;-70
2021/12/05 03:14:32;;;;;;;343.40;108.45;;;;;;;7.34;91.58;99100.13;345066;28;2045;-70
2021/12/05 03:14:44;;;;;;;342.23;107.33;;;;;;;7.32;91.82;99097.59;345010;28;1414;-70
2021/12/05 03:15:00;;;;;;;343.25;107.70;;;;;;;7.29;91.77;99102.06;345006;28;1403;-69
2021/12/05 03:15:11;;;;;;;345.13;107.80;;;;;;;7.31;91.88;99100.25;345408;28;949;-69
2021/12/05 03:15:22;;;;;;;346.00;107.18;;;;;;;7.33;91.54;99103.66;343831;28;2298;-69
2021/12/05 03:15:32;;;;;;;345.63;106.53;;;;;;;7.34;91.64;99105.34;343679;28;1803;-69
2021/12/05 03:15:43;;;;;;;341.77;104.00;;;;;;;7.35;91.52;99101.84;343651;28;2147;-70
2021/12/05 03:15:56;;;;;;;340.10;104.80;;;;;;;7.36;91.54;99098.34;342553;28;961;-70
2021/12/05 03:16:07;;;;;;;341.38;106.93;;;;;;;7.36;91.98;99098.34;344697;28;2309;-70
2021/12/05 03:16:18;;;;;;;344.98;108.97;;;;;;;7.33;91.91;99099.28;345150;28;1985;-71
2021/12/05 03:16:29;;;;;;;343.90;105.82;;;;;;;7.34;91.86;99106.19;343524;28;2003;-71
2021/12/05 03:16:40;;;;;;;342.90;105.13;;;;;;;7.36;91.34;99103.53;343757;28;1607;-69
2021/12/05 03:16:50;;;;;;;344.93;107.33;;;;;;;7.38;91.77;99101.69;344082;28;1747;-69
2021/12/05 03:17:01;;;;;;;343.73;109.32;;;;;;;7.39;91.10;99103.41;345389;28;2014;-69
2021/12/05 03:17:11;;;;;;;343.00;108.90;;;;;;;7.38;91.40;99099.09;346584;28;932;-69
2021/12/05 03:17:21;;;;;;;340.60;106.20;;;;;;;7.38;91.37;99101.69;345001;28;2191;-69
2021/12/05 03:17:32;;;;;;;342.60;106.57;;;;;;;7.40;91.38;99105.09;344991;28;2100;-71
2021/12/05 03:17:42;;;;;;;346.45;106.82;;;;;;;7.40;91.64;99099.03;345176;28;945;-70
2021/12/05 03:17:53;;;;;;;345.50;105.97;;;;;;;7.41;90.96;99095.53;345275;28;927;-70
2021/12/05 03:18:03;;;;;;;344.05;104.07;;;;;;;7.43;91.47;99099.78;346267;28;2041;-70
2021/12/05 03:18:14;;;;;;;342.17;104.40;;;;;;;7.44;91.11;99100.63;345013;28;1617;-70
2021/12/05 03:18:24;;;;;;;345.10;105.80;;;;;;;7.40;91.07;99097.28;343923;28;1762;-70
2021/12/05 03:18:35;;;;;;;346.52;107.82;;;;;;;7.41;91.19;99095.53;342472;28;1790;-70
2021/12/05 03:18:45;;;;;;;346.47;105.80;;;;;;;7.44;90.99;99098.88;342823;28;2099;-70
2021/12/05 03:18:55;;;;;;;344.25;105.78;;;;;;;7.43;91.27;99094.56;343877;28;1182;-70
2021/12/05 03:19:06;;;;;;;344.37;106.70;;;;;;;7.47;90.91;99092.72;343717;28;1944;-70
2021/12/05 03:19:17;;;;;;;344.58;107.95;;;;;;;7.48;91.32;99097.84;342022;28;1789;-70
2021/12/05 03:19:28;;;;;;;345.33;108.88;;;;;;;7.44;90.88;99090.22;343763;28;2006;-70